Time;durP1;ratioP1;P1;durP2;ratioP2;P2;SDS_P1;SDS_P2;PMS_P1;PMS_P2;Temp;Humidity;BMP_temperature;BMP_pressure;BME280_temperature;BME280_humidity;BME280_pressure;Samples;Min_cycle;Max_cycle;Signal;HPM_P1;HPM_P2
2020/12/12 00:00:01;;;;;;;;;;;;;;;;;;5018660;28;20386;-83
2020/12/12 00:02:30;;;;;;;;;;;;;;;;;;5018763;28;20393;-82
2020/12/12 00:04:57;;;;;;;;;;;;;;;;;;5018480;28;20458;-83
2020/12/12 00:07:23;;;;;;;;;;;;;;;;;;5037754;28;20425;-84
2020/12/12 00:09:49;;;;;;;;;;;;;;;;;;5022164;28;20885;-85
2020/12/12 00:12:16;;;;;;;;;;;;;;;;;;5015206;28;20904;-84
2020/12/12 00:14:42;;;;;;;;;;;;;;;;;;5020236;28;20392;-83
2020/12/12 00:17:09;;;;;;;;;;;;;;;;;;5018941;28;20433;-84
2020/12/12 00:19:43;;;;;;;;;;;;;;;;;;5019972;28;20398;-84
2020/12/12 00:22:10;;;;;;;;;;;;;;;;;;5020280;28;20401;-82
2020/12/12 00:24:36;;;;;;;;;;;;;;;;;;5018186;28;20392;-85
2020/12/12 00:27:03;;;;;;;;;;;;;;;;;;5019078;28;20788;-84
2020/12/12 00:29:29;;;;;;;;;;;;;;;;;;5017433;28;20393;-85
2020/12/12 00:34:43;;;;;;;;;;;;;;;;;;5030954;28;20405;-84
2020/12/12 00:37:11;;;;;;;;;;;;;;;;;;5030734;28;20410;-84
2020/12/12 00:39:37;;;;;;;;;;;;;;;;;;5044929;28;20403;-84
2020/12/12 00:42:03;;;;;;;;;;;;;;;;;;5040751;28;20514;-83
2020/12/12 00:44:30;;;;;;;;;;;;;;;;;;5038477;28;20378;-82
2020/12/12 00:46:56;;;;;;;;;;;;;;;;;;5051276;28;20401;-83
2020/12/12 00:49:23;;;;;;;;;;;;;;;;;;5039359;28;20548;-84
2020/12/12 00:51:49;;;;;;;;;;;;;;;;;;5019452;28;20417;-84
2020/12/12 00:54:16;;;;;;;;;;;;;;;;;;5029579;28;20830;-83
2020/12/12 00:56:42;;;;;;;;;;;;;;;;;;5019487;28;20419;-84
2020/12/12 00:59:08;;;;;;;;;;;;;;;;;;5032925;28;20395;-84
2020/12/12 01:01:35;;;;;;;;;;;;;;;;;;5016264;28;20917;-84
2020/12/12 01:04:01;;;;;;;;;;;;;;;;;;5036884;28;20414;-83
2020/12/12 01:06:28;;;;;;;;;;;;;;;;;;5044365;28;20383;-83
2020/12/12 01:08:54;;;;;;;;;;;;;;;;;;5037511;28;20405;-84
2020/12/12 01:11:20;;;;;;;;;;;;;;;;;;5033105;28;20406;-84
2020/12/12 01:13:47;;;;;;;;;;;;;;;;;;5030157;28;20384;-85
2020/12/12 01:16:13;;;;;;;;;;;;;;;;;;5036107;28;20454;-82
2020/12/12 01:18:40;;;;;;;;;;;;;;;;;;5024263;28;20801;-83
2020/12/12 01:21:06;;;;;;;;;;;;;;;;;;5031442;28;20394;-85
2020/12/12 01:23:32;;;;;;;;;;;;;;;;;;5024537;28;20782;-85
2020/12/12 01:25:59;;;;;;;;;;;;;;;;;;5025930;28;20379;-84
2020/12/12 01:28:25;;;;;;;;;;;;;;;;;;5032906;28;20399;-85
2020/12/12 01:30:53;;;;;;;;;;;;;;;;;;5016807;28;20428;-85
2020/12/12 01:33:19;;;;;;;;;;;;;;;;;;5030684;28;20383;-84
2020/12/12 01:35:45;;;;;;;;;;;;;;;;;;5035888;28;20407;-85
2020/12/12 01:38:12;;;;;;;;;;;;;;;;;;5039738;28;20388;-84
2020/12/12 01:40:38;;;;;;;;;;;;;;;;;;5032822;28;20391;-85
2020/12/12 01:43:05;;;;;;;;;;;;;;;;;;5020148;28;20409;-85
2020/12/12 01:45:31;;;;;;;;;;;;;;;;;;5029346;28;20383;-85
2020/12/12 01:47:58;;;;;;;;;;;;;;;;;;5019558;28;20398;-85
2020/12/12 01:50:24;;;;;;;;;;;;;;;;;;5028649;28;20492;-85
2020/12/12 01:52:51;;;;;;;;;;;;;;;;;;5033182;28;20482;-85
2020/12/12 01:55:17;;;;;;;;;;;;;;;;;;5038060;28;20389;-85
2020/12/12 01:57:43;;;;;;;;;;;;;;;;;;5027056;28;20413;-85
2020/12/12 02:00:10;;;;;;;;;;;;;;;;;;5027627;28;20394;-85
2020/12/12 02:02:36;;;;;;;;;;;;;;;;;;5030719;28;20410;-85
2020/12/12 02:05:03;;;;;;;;;;;;;;;;;;5028174;28;20417;-85
2020/12/12 02:07:29;;;;;;;;;;;;;;;;;;5026601;28;20393;-85
2020/12/12 02:09:56;;;;;;;;;;;;;;;;;;5033441;28;20387;-85
2020/12/12 02:12:22;;;;;;;;;;;;;;;;;;5038003;28;20414;-85
2020/12/12 02:14:48;;;;;;;;;;;;;;;;;;5032636;28;20386;-85
2020/12/12 02:17:15;;;;;;;;;;;;;;;;;;5037325;28;20411;-85
2020/12/12 02:19:41;;;;;;;;;;;;;;;;;;5044141;28;20440;-85
2020/12/12 02:22:08;;;;;;;;;;;;;;;;;;5030846;28;20420;-85
2020/12/12 02:24:34;;;;;;;;;;;;;;;;;;5038287;28;20371;-85
2020/12/12 02:27:00;;;;;;;;;;;;;;;;;;5036893;28;20379;-85
2020/12/12 02:29:38;;;;;;;;;;;;;;;;;;5026120;28;20379;-85
2020/12/12 02:32:04;;;;;;;;;;;;;;;;;;5024769;28;20409;-84
2020/12/12 02:34:31;;;;;;;;;;;;;;;;;;5029251;28;20390;-84
2020/12/12 02:36:57;;;;;;;;;;;;;;;;;;5038863;28;20425;-84
2020/12/12 02:39:24;;;;;;;;;;;;;;;;;;5045477;28;20378;-84
2020/12/12 02:41:50;;;;;;;;;;;;;;;;;;5036308;28;20401;-86
2020/12/12 02:44:16;;;;;;;;;;;;;;;;;;5049140;28;20406;-85
2020/12/12 02:46:43;;;;;;;;;;;;;;;;;;5046815;28;20382;-86
2020/12/12 02:49:09;;;;;;;;;;;;;;;;;;5034871;28;20386;-86
2020/12/12 02:51:35;;;;;;;;;;;;;;;;;;5045785;28;20824;-86
2020/12/12 02:54:02;;;;;;;;;;;;;;;;;;5035132;28;20394;-85
2020/12/12 02:56:28;;;;;;;;;;;;;;;;;;5038800;28;20436;-85
2020/12/12 02:58:54;;;;;;;;;;;;;;;;;;5037305;28;20417;-85
2020/12/12 03:01:21;;;;;;;;;;;;;;;;;;5023147;28;20413;-84
2020/12/12 03:03:47;;;;;;;;;;;;;;;;;;5030483;28;20391;-86
2020/12/12 03:06:14;;;;;;;;;;;;;;;;;;5036902;28;20390;-85
2020/12/12 03:08:40;;;;;;;;;;;;;;;;;;5019883;28;20393;-85
2020/12/12 03:11:06;;;;;;;;;;;;;;;;;;5018699;28;20375;-85
2020/12/12 03:13:33;;;;;;;;;;;;;;;;;;5021356;28;20383;-84
2020/12/12 03:15:59;;;;;;;;;;;;;;;;;;5019612;28;20874;-85
2020/12/12 03:18:25;;;;;;;;;;;;;;;;;;5015370;28;20404;-84
2020/12/12 03:20:52;;;;;;;;;;;;;;;;;;5016874;28;20420;-83
2020/12/12 03:23:18;;;;;;;;;;;;;;;;;;5019059;28;20383;-85
2020/12/12 03:25:45;;;;;;;;;;;;;;;;;;5018606;28;20416;-85
2020/12/12 03:28:11;;;;;;;;;;;;;;;;;;5022679;28;20449;-84
2020/12/12 03:30:37;;;;;;;;;;;;;;;;;;5036775;28;20399;-84
2020/12/12 03:33:04;;;;;;;;;;;;;;;;;;5026445;28;20440;-84
2020/12/12 03:35:31;;;;;;;;;;;;;;;;;;5025945;28;20391;-84
2020/12/12 03:37:58;;;;;;;;;;;;;;;;;;5024557;28;20396;-85
2020/12/12 03:40:24;;;;;;;;;;;;;;;;;;5032468;28;20464;-85
2020/12/12 03:42:51;;;;;;;;;;;;;;;;;;5019892;28;20413;-85
2020/12/12 03:45:17;;;;;;;;;;;;;;;;;;5026522;28;20429;-84
2020/12/12 03:47:43;;;;;;;;;;;;;;;;;;5034780;28;20384;-85
2020/12/12 03:50:10;;;;;;;;;;;;;;;;;;5031454;28;20449;-86
2020/12/12 03:52:36;;;;;;;;;;;;;;;;;;5035167;28;20410;-85
2020/12/12 03:55:03;;;;;;;;;;;;;;;;;;5019571;28;20393;-85
2020/12/12 03:57:29;;;;;;;;;;;;;;;;;;5027446;28;20420;-84
2020/12/12 03:59:55;;;;;;;;;;;;;;;;;;5027910;28;20440;-85
2020/12/12 04:02:22;;;;;;;;;;;;;;;;;;5019314;28;20414;-85
2020/12/12 04:04:48;;;;;;;;;;;;;;;;;;5034670;28;20392;-83
2020/12/12 04:07:14;;;;;;;;;;;;;;;;;;5026645;28;20432;-85
2020/12/12 04:09:41;;;;;;;;;;;;;;;;;;5021030;28;20401;-85
2020/12/12 04:12:07;;;;;;;;;;;;;;;;;;5022566;28;20429;-85
2020/12/12 04:14:34;;;;;;;;;;;;;;;;;;5038960;28;20433;-85
2020/12/12 04:17:00;;;;;;;;;;;;;;;;;;5029183;28;20398;-85
2020/12/12 04:19:26;;;;;;;;;;;;;;;;;;5020610;28;20399;-84
2020/12/12 04:21:53;;;;;;;;;;;;;;;;;;5022060;28;20410;-84
2020/12/12 04:24:19;;;;;;;;;;;;;;;;;;5043772;28;20392;-83
2020/12/12 04:26:45;;;;;;;;;;;;;;;;;;5055156;28;20374;-85
2020/12/12 04:29:12;;;;;;;;;;;;;;;;;;5023826;28;20383;-85
2020/12/12 04:31:38;;;;;;;;;;;;;;;;;;5019762;28;20409;-85
2020/12/12 04:34:04;;;;;;;;;;;;;;;;;;5026375;28;20391;-85
2020/12/12 04:36:32;;;;;;;;;;;;;;;;;;5025236;28;20422;-85
2020/12/12 04:38:58;;;;;;;;;;;;;;;;;;5025716;28;20816;-86
2020/12/12 04:41:25;;;;;;;;;;;;;;;;;;5029450;28;20428;-84
2020/12/12 04:43:51;;;;;;;;;;;;;;;;;;5030251;28;20386;-84
2020/12/12 04:46:18;;;;;;;;;;;;;;;;;;5034719;28;20398;-83
2020/12/12 04:48:44;;;;;;;;;;;;;;;;;;5032772;28;20386;-84
2020/12/12 04:51:10;;;;;;;;;;;;;;;;;;5034205;28;20418;-84
2020/12/12 04:53:37;;;;;;;;;;;;;;;;;;5041427;28;20383;-85
2020/12/12 04:56:03;;;;;;;;;;;;;;;;;;5035180;28;20425;-84
2020/12/12 04:58:30;;;;;;;;;;;;;;;;;;5024071;28;20401;-83
2020/12/12 05:00:56;;;;;;;;;;;;;;;;;;5039084;28;20375;-85
2020/12/12 05:03:22;;;;;;;;;;;;;;;;;;5044147;28;20390;-85
2020/12/12 05:05:49;;;;;;;;;;;;;;;;;;5027098;28;20387;-88
2020/12/12 05:08:15;;;;;;;;;;;;;;;;;;5028919;28;20397;-88
2020/12/12 05:10:42;;;;;;;;;;;;;;;;;;5018893;28;20723;-87
2020/12/12 05:13:08;;;;;;;;;;;;;;;;;;5026424;28;20426;-87
2020/12/12 05:15:35;;;;;;;;;;;;;;;;;;5018544;28;20440;-88
2020/12/12 05:18:01;;;;;;;;;;;;;;;;;;5021474;28;20909;-88
2020/12/12 05:20:27;;;;;;;;;;;;;;;;;;5024134;28;20399;-86
2020/12/12 05:22:54;;;;;;;;;;;;;;;;;;5030220;28;20953;-85
2020/12/12 05:25:20;;;;;;;;;;;;;;;;;;5038188;28;20391;-85
2020/12/12 05:27:47;;;;;;;;;;;;;;;;;;5038168;28;20382;-85
2020/12/12 05:30:13;;;;;;;;;;;;;;;;;;5039406;28;20402;-84
2020/12/12 05:32:39;;;;;;;;;;;;;;;;;;5028605;28;20437;-85
2020/12/12 05:35:06;;;;;;;;;;;;;;;;;;5032062;28;20385;-85
2020/12/12 05:37:32;;;;;;;;;;;;;;;;;;5025215;28;20409;-85
2020/12/12 05:39:58;;;;;;;;;;;;;;;;;;5026361;28;20394;-84
2020/12/12 05:42:25;;;;;;;;;;;;;;;;;;5025651;28;20416;-85
2020/12/12 05:44:53;;;;;;;;;;;;;;;;;;5027516;28;20424;-85
2020/12/12 05:47:19;;;;;;;;;;;;;;;;;;5040832;28;20409;-86
2020/12/12 05:49:45;;;;;;;;;;;;;;;;;;5029246;28;20409;-86
2020/12/12 05:52:12;;;;;;;;;;;;;;;;;;5036673;28;20407;-85
2020/12/12 05:54:38;;;;;;;;;;;;;;;;;;5030317;28;20385;-85
2020/12/12 05:57:05;;;;;;;;;;;;;;;;;;5020386;28;20410;-86
2020/12/12 05:59:31;;;;;;;;;;;;;;;;;;5027412;28;20394;-87
2020/12/12 06:02:00;;;;;;;;;;;;;;;;;;5028854;28;20418;-87
2020/12/12 06:04:26;;;;;;;;;;;;;;;;;;5023889;28;20423;-86
2020/12/12 06:06:53;;;;;;;;;;;;;;;;;;5028455;28;20389;-86
2020/12/12 06:09:19;;;;;;;;;;;;;;;;;;5021597;28;20394;-87
2020/12/12 06:11:46;;;;;;;;;;;;;;;;;;5034673;28;20410;-87
2020/12/12 06:14:12;;;;;;;;;;;;;;;;;;5036262;28;20425;-85
2020/12/12 06:16:38;;;;;;;;;;;;;;;;;;5037169;28;20414;-86
2020/12/12 06:19:05;;;;;;;;;;;;;;;;;;5029137;28;20437;-86
2020/12/12 06:21:31;;;;;;;;;;;;;;;;;;5034918;28;20414;-86
2020/12/12 06:23:58;;;;;;;;;;;;;;;;;;5018207;28;20399;-87
2020/12/12 06:26:27;;;;;;;;;;;;;;;;;;5021297;28;20466;-88
2020/12/12 06:28:53;;;;;;;;;;;;;;;;;;5027944;28;20396;-86
2020/12/12 06:31:20;;;;;;;;;;;;;;;;;;5052036;22;20401;-84
2020/12/12 06:33:46;;;;;;;;;;;;;;;;;;5076197;28;20410;-81
2020/12/12 06:36:18;;;;;;;;;;;;;;;;;;5074030;28;20474;-81
2020/12/12 06:38:44;;;;;;;;;;;;;;;;;;5062125;28;20387;-81
2020/12/12 06:41:11;;;;;;;;;;;;;;;;;;5055795;28;20810;-83
2020/12/12 06:43:38;;;;;;;;;;;;;;;;;;5044368;28;20407;-80
2020/12/12 06:46:04;;;;;;;;;;;;;;;;;;5043298;28;20797;-81
2020/12/12 06:48:30;;;;;;;;;;;;;;;;;;5046505;28;20434;-80
2020/12/12 06:50:57;;;;;;;;;;;;;;;;;;5051007;28;20382;-80
2020/12/12 06:53:23;;;;;;;;;;;;;;;;;;5043390;28;20895;-81
2020/12/12 06:55:50;;;;;;;;;;;;;;;;;;5045546;28;20805;-81
2020/12/12 06:58:16;;;;;;;;;;;;;;;;;;5035372;28;20399;-80
2020/12/12 07:00:42;;;;;;;;;;;;;;;;;;5051036;28;20380;-80
2020/12/12 07:03:09;;;;;;;;;;;;;;;;;;5038818;28;20422;-80
2020/12/12 07:05:35;;;;;;;;;;;;;;;;;;5034883;28;20457;-82
2020/12/12 07:08:01;;;;;;;;;;;;;;;;;;5053483;28;20383;-79
2020/12/12 07:10:28;;;;;;;;;;;;;;;;;;5055648;28;20787;-81
2020/12/12 07:12:54;;;;;;;;;;;;;;;;;;5051830;28;20403;-82
2020/12/12 07:15:21;;;;;;;;;;;;;;;;;;5049049;28;20394;-81
2020/12/12 07:17:47;;;;;;;;;;;;;;;;;;5042928;28;20413;-81
2020/12/12 07:20:13;;;;;;;;;;;;;;;;;;5041735;28;20380;-81
2020/12/12 07:22:40;;;;;;;;;;;;;;;;;;5041812;28;20818;-80
2020/12/12 07:25:07;;;;;;;;;;;;;;;;;;5055971;28;20402;-82
2020/12/12 07:27:34;;;;;;;;;;;;;;;;;;5042020;28;20795;-83
2020/12/12 07:30:00;;;;;;;;;;;;;;;;;;5041188;28;20381;-81
2020/12/12 07:32:27;;;;;;;;;;;;;;;;;;5055489;28;20417;-80
2020/12/12 07:34:53;;;;;;;;;;;;;;;;;;5069583;28;20386;-78
2020/12/12 07:37:21;;;;;;;;;;;;;;;;;;5062985;28;20465;-81
2020/12/12 07:39:47;;;;;;;;;;;;;;;;;;5050139;28;20393;-81
2020/12/12 07:42:14;;;;;;;;;;;;;;;;;;5040637;28;20414;-81
2020/12/12 07:44:42;;;;;;;;;;;;;;;;;;5055274;28;20806;-82
2020/12/12 07:47:09;;;;;;;;;;;;;;;;;;5047766;28;20744;-82
2020/12/12 07:49:36;;;;;;;;;;;;;;;;;;5047107;28;20394;-82
2020/12/12 07:52:02;;;;;;;;;;;;;;;;;;5054704;28;20909;-82
2020/12/12 07:54:29;;;;;;;;;;;;;;;;;;5041663;28;20434;-82
2020/12/12 07:56:55;;;;;;;;;;;;;;;;;;5058640;28;20452;-81
2020/12/12 07:59:21;;;;;;;;;;;;;;;;;;5043881;28;20899;-82
2020/12/12 08:01:48;;;;;;;;;;;;;;;;;;5038784;28;20484;-83
2020/12/12 08:04:14;;;;;;;;;;;;;;;;;;5046275;28;20426;-85
2020/12/12 08:06:41;;;;;;;;;;;;;;;;;;5059168;28;20396;-82
2020/12/12 08:09:07;;;;;;;;;;;;;;;;;;5057768;28;20393;-79
2020/12/12 08:11:33;;;;;;;;;;;;;;;;;;5060336;28;20395;-79
2020/12/12 08:14:00;;;;;;;;;;;;;;;;;;5059979;28;20391;-80
2020/12/12 08:16:29;;;;;;;;;;;;;;;;;;5047138;28;20419;-81
2020/12/12 08:18:56;;;;;;;;;;;;;;;;;;5054749;28;20865;-81
2020/12/12 08:21:22;;;;;;;;;;;;;;;;;;5046569;28;20387;-81
2020/12/12 08:23:49;;;;;;;;;;;;;;;;;;5049573;28;20392;-81
2020/12/12 08:26:15;;;;;;;;;;;;;;;;;;5039193;28;20430;-80
2020/12/12 08:28:41;;;;;;;;;;;;;;;;;;5043833;28;20396;-81
2020/12/12 08:31:08;;;;;;;;;;;;;;;;;;5057631;28;20852;-82
2020/12/12 08:33:34;;;;;;;;;;;;;;;;;;5056909;28;20415;-81
2020/12/12 08:36:00;;;;;;;;;;;;;;;;;;5055759;28;20385;-81
2020/12/12 08:38:28;;;;;;;;;;;;;;;;;;5058840;28;20388;-84
2020/12/12 08:40:54;;;;;;;;;;;;;;;;;;5062741;28;20385;-83
2020/12/12 08:43:21;;;;;;;;;;;;;;;;;;5061820;28;20400;-86
2020/12/12 08:45:47;;;;;;;;;;;;;;;;;;5049108;28;20843;-86
2020/12/12 08:48:21;;;;;;;;;;;;;;;;;;5061317;28;20411;-85
2020/12/12 08:50:48;;;;;;;;;;;;;;;;;;5054141;28;20758;-82
2020/12/12 08:53:17;;;;;;;;;;;;;;;;;;5052887;28;20404;-81
2020/12/12 08:55:44;;;;;;;;;;;;;;;;;;5054386;28;20386;-81
2020/12/12 08:58:10;;;;;;;;;;;;;;;;;;5068147;28;20408;-79
2020/12/12 09:00:36;;;;;;;;;;;;;;;;;;5063727;28;20395;-80
2020/12/12 09:03:03;;;;;;;;;;;;;;;;;;5057567;28;20843;-81
2020/12/12 09:05:29;;;;;;;;;;;;;;;;;;5057611;28;20389;-82
2020/12/12 09:07:55;;;;;;;;;;;;;;;;;;5044412;28;20853;-82
2020/12/12 09:10:22;;;;;;;;;;;;;;;;;;5059727;28;20385;-82
2020/12/12 09:12:49;;;;;;;;;;;;;;;;;;5059169;28;20412;-82
2020/12/12 09:15:16;;;;;;;;;;;;;;;;;;5044297;28;20391;-81
2020/12/12 09:17:42;;;;;;;;;;;;;;;;;;5053727;28;20400;-82
2020/12/12 09:20:09;;;;;;;;;;;;;;;;;;5053116;28;20388;-82
2020/12/12 09:22:35;;;;;;;;;;;;;;;;;;5048436;28;20432;-83
2020/12/12 09:25:01;;;;;;;;;;;;;;;;;;5040459;28;20394;-82
2020/12/12 09:27:28;;;;;;;;;;;;;;;;;;5042945;28;20405;-82
2020/12/12 09:29:54;;;;;;;;;;;;;;;;;;5065000;28;20380;-81
2020/12/12 09:32:23;;;;;;;;;;;;;;;;;;5064620;28;20422;-82
2020/12/12 09:34:49;;;;;;;;;;;;;;;;;;5069857;28;20383;-84
2020/12/12 09:37:15;;;;;;;;;;;;;;;;;;5059323;28;20411;-82
2020/12/12 09:39:42;;;;;;;;;;;;;;;;;;5066206;28;20383;-83
2020/12/12 09:42:08;;;;;;;;;;;;;;;;;;5071117;28;20420;-83
2020/12/12 09:44:35;;;;;;;;;;;;;;;;;;5071249;28;20456;-84
2020/12/12 09:47:01;;;;;;;;;;;;;;;;;;5074429;28;20364;-82
2020/12/12 09:49:28;;;;;;;;;;;;;;;;;;5085980;28;20532;-84
2020/12/12 09:51:54;;;;;;;;;;;;;;;;;;5092300;28;20384;-83
2020/12/12 09:54:21;;;;;;;;;;;;;;;;;;5068968;28;20380;-82
2020/12/12 09:56:47;;;;;;;;;;;;;;;;;;5057217;28;20428;-81
2020/12/12 09:59:17;;;;;;;;;;;;;;;;;;5067607;28;20391;-81
2020/12/12 10:01:43;;;;;;;;;;;;;;;;;;5056315;28;20430;-80
2020/12/12 10:04:10;;;;;;;;;;;;;;;;;;5057331;28;20434;-82
2020/12/12 10:06:36;;;;;;;;;;;;;;;;;;5060835;28;20393;-81
2020/12/12 10:09:02;;;;;;;;;;;;;;;;;;5059834;28;20396;-81
2020/12/12 10:11:29;;;;;;;;;;;;;;;;;;5065086;28;20439;-81
2020/12/12 10:14:00;;;;;;;;;;;;;;;;;;5061420;28;20380;-80
2020/12/12 10:16:27;;;;;;;;;;;;;;;;;;5044640;28;20403;-80
2020/12/12 10:18:53;;;;;;;;;;;;;;;;;;5057703;28;20394;-80
2020/12/12 10:21:19;;;;;;;;;;;;;;;;;;5055854;28;20410;-78
2020/12/12 10:23:46;;;;;;;;;;;;;;;;;;5068069;28;20388;-81
2020/12/12 10:26:13;;;;;;;;;;;;;;;;;;5072262;28;20386;-82
2020/12/12 10:28:39;;;;;;;;;;;;;;;;;;5064047;28;22799;-82
2020/12/12 10:31:05;;;;;;;;;;;;;;;;;;5073227;28;20381;-82
2020/12/12 10:33:32;;;;;;;;;;;;;;;;;;5058475;28;20412;-81
2020/12/12 10:35:59;;;;;;;;;;;;;;;;;;5051495;28;20410;-83
2020/12/12 10:38:25;;;;;;;;;;;;;;;;;;5061995;28;20404;-80
2020/12/12 10:41:00;;;;;;;;;;;;;;;;;;5057772;28;20384;-84
2020/12/12 10:43:27;;;;;;;;;;;;;;;;;;5066625;28;20412;-82
2020/12/12 10:45:54;;;;;;;;;;;;;;;;;;5059627;28;20417;-82
2020/12/12 10:48:23;;;;;;;;;;;;;;;;;;5064823;28;20784;-83
2020/12/12 10:50:51;;;;;;;;;;;;;;;;;;5065560;28;20384;-83
2020/12/12 10:53:18;;;;;;;;;;;;;;;;;;5063863;28;20407;-82
2020/12/12 10:55:44;;;;;;;;;;;;;;;;;;5071785;28;20381;-81
2020/12/12 10:58:10;;;;;;;;;;;;;;;;;;5073594;28;20405;-83
2020/12/12 11:00:42;;;;;;;;;;;;;;;;;;5066746;28;20456;-82
2020/12/12 11:03:09;;;;;;;;;;;;;;;;;;5058841;28;20901;-81
2020/12/12 11:05:35;;;;;;;;;;;;;;;;;;5064557;28;20529;-82
2020/12/12 11:08:02;;;;;;;;;;;;;;;;;;5054414;28;20391;-84
2020/12/12 11:10:28;;;;;;;;;;;;;;;;;;5054824;28;20395;-82
2020/12/12 11:12:55;;;;;;;;;;;;;;;;;;5066000;28;20468;-83
2020/12/12 11:15:21;;;;;;;;;;;;;;;;;;5063712;28;20402;-83
2020/12/12 11:17:47;;;;;;;;;;;;;;;;;;5062133;28;20403;-82
2020/12/12 11:20:14;;;;;;;;;;;;;;;;;;5073228;28;20388;-84
2020/12/12 11:22:40;;;;;;;;;;;;;;;;;;5057891;28;20407;-82
2020/12/12 11:25:07;;;;;;;;;;;;;;;;;;5055854;28;20437;-82
2020/12/12 11:27:34;;;;;;;;;;;;;;;;;;5060708;28;20394;-80
2020/12/12 11:30:00;;;;;;;;;;;;;;;;;;5075765;28;20371;-79
2020/12/12 11:32:27;;;;;;;;;;;;;;;;;;5069596;28;20441;-79
2020/12/12 11:34:59;;;;;;;;;;;;;;;;;;5058531;28;20470;-82
2020/12/12 11:37:35;;;;;;;;;;;;;;;;;;5059596;28;20407;-83
2020/12/12 11:40:12;;;;;;;;;;;;;;;;;;5064836;28;20394;-84
2020/12/12 11:43:17;;;;;;;;;;;;;;;;;;5072485;28;20403;-82
2020/12/12 11:48:28;;;;;;;;;;;;;;;;;;5080699;28;20398;-79
2020/12/12 11:50:54;;;;;;;;;;;;;;;;;;5076385;28;20381;-79
2020/12/12 11:53:21;;;;;;;;;;;;;;;;;;5060053;28;20417;-79
2020/12/12 11:55:47;;;;;;;;;;;;;;;;;;5046985;28;20822;-80
2020/12/12 11:58:14;;;;;;;;;;;;;;;;;;5039991;28;20417;-79
2020/12/12 12:00:43;;;;;;;;;;;;;;;;;;5051913;28;20423;-81
2020/12/12 12:03:10;;;;;;;;;;;;;;;;;;5059926;28;20837;-81
2020/12/12 12:05:36;;;;;;;;;;;;;;;;;;5052489;28;20383;-81
2020/12/12 12:08:04;;;;;;;;;;;;;;;;;;5040113;28;20415;-81
2020/12/12 12:10:38;;;;;;;;;;;;;;;;;;5040030;28;20473;-81
2020/12/12 12:13:05;;;;;;;;;;;;;;;;;;5056631;28;20404;-81
2020/12/12 12:15:34;;;;;;;;;;;;;;;;;;5059386;28;20400;-81
2020/12/12 12:18:00;;;;;;;;;;;;;;;;;;5058740;28;20404;-81
2020/12/12 12:20:27;;;;;;;;;;;;;;;;;;5054956;28;20848;-81
2020/12/12 12:22:53;;;;;;;;;;;;;;;;;;5039327;28;20419;-81
2020/12/12 12:25:19;;;;;;;;;;;;;;;;;;5038814;28;20848;-82
2020/12/12 12:27:46;;;;;;;;;;;;;;;;;;5044300;28;20399;-80
2020/12/12 12:30:12;;;;;;;;;;;;;;;;;;5050564;28;20393;-81
2020/12/12 12:46:06;;;;;;;;;;;;;;;;;;4998307;28;20391;-84
2020/12/12 12:48:32;;;;;;;;;;;;;;;;;;4999339;28;20453;-83
2020/12/12 12:50:59;;;;;;;;;;;;;;;;;;5000076;28;20389;-83
2020/12/12 12:53:25;;;;;;;;;;;;;;;;;;4998861;28;20417;-83
2020/12/12 12:55:52;;;;;;;;;;;;;;;;;;5001987;28;20405;-82
2020/12/12 12:58:18;;;;;;;;;;;;;;;;;;4999704;28;20412;-84
2020/12/12 13:00:44;;;;;;;;;;;;;;;;;;5001776;28;20422;-86
2020/12/12 13:03:16;;;;;;;;;;;;;;;;;;5010507;28;20421;-86
2020/12/12 13:05:44;;;;;;;;;;;;;;;;;;4998604;28;20401;-84
2020/12/12 13:08:10;;;;;;;;;;;;;;;;;;4999416;28;20406;-82
2020/12/12 13:10:37;;;;;;;;;;;;;;;;;;5018818;28;20424;-83
2020/12/12 13:13:05;;;;;;;;;;;;;;;;;;5006321;28;20864;-81
2020/12/12 13:15:32;;;;;;;;;;;;;;;;;;5007799;28;20385;-81
2020/12/12 13:18:01;;;;;;;;;;;;;;;;;;5004090;28;20398;-82
2020/12/12 13:20:42;;;;;;;;;;;;;;;;;;5019008;28;20404;-82
2020/12/12 13:23:09;;;;;;;;;;;;;;;;;;5050441;28;20409;-82
2020/12/12 13:25:35;;;;;;;;;;;;;;;;;;5080228;28;20373;-85
2020/12/12 13:31:03;;;;;;;;;;;;;;;;;;5088503;28;20381;-86
2020/12/12 13:33:29;;;;;;;;;;;;;;;;;;5068715;28;20426;-85
2020/12/12 13:35:55;;;;;;;;;;;;;;;;;;5049675;28;20445;-83
2020/12/12 13:38:22;;;;;;;;;;;;;;;;;;5058792;28;20412;-85
2020/12/12 13:40:50;;;;;;;;;;;;;;;;;;5074400;28;20401;-85
2020/12/12 13:43:16;;;;;;;;;;;;;;;;;;5075828;28;20401;-85
2020/12/12 13:45:43;;;;;;;;;;;;;;;;;;5078570;28;20387;-83
2020/12/12 13:48:10;;;;;;;;;;;;;;;;;;5076204;28;20381;-84
2020/12/12 13:50:36;;;;;;;;;;;;;;;;;;5055452;28;20384;-84
2020/12/12 13:53:03;;;;;;;;;;;;;;;;;;5061822;28;20728;-84
2020/12/12 13:55:29;;;;;;;;;;;;;;;;;;5051742;28;20397;-84
2020/12/12 13:57:56;;;;;;;;;;;;;;;;;;5065986;28;20902;-81
2020/12/12 14:00:23;;;;;;;;;;;;;;;;;;5056604;28;20394;-83
2020/12/12 14:22:36;;;;;;;;;;;;;;;;;;5055382;28;20398;-82
2020/12/12 14:25:06;;;;;;;;;;;;;;;;;;5070610;28;20395;-82
2020/12/12 14:30:17;;;;;;;;;;;;;;;;;;5057299;28;20374;-86
2020/12/12 14:32:44;;;;;;;;;;;;;;;;;;5040544;28;20414;-84
2020/12/12 14:35:10;;;;;;;;;;;;;;;;;;5045497;28;20396;-83
2020/12/12 14:37:37;;;;;;;;;;;;;;;;;;5067034;28;20403;-84
2020/12/12 14:40:03;;;;;;;;;;;;;;;;;;5060315;28;20399;-84
2020/12/12 14:42:29;;;;;;;;;;;;;;;;;;5046660;28;20409;-85
2020/12/12 14:44:56;;;;;;;;;;;;;;;;;;5087291;28;20389;-83
2020/12/12 14:47:22;;;;;;;;;;;;;;;;;;5082205;28;20381;-84
2020/12/12 14:49:49;;;;;;;;;;;;;;;;;;5082803;28;20374;-84
2020/12/12 14:52:15;;;;;;;;;;;;;;;;;;5082778;28;20414;-84
2020/12/12 14:54:41;;;;;;;;;;;;;;;;;;5071177;28;20388;-84
2020/12/12 14:57:08;;;;;;;;;;;;;;;;;;5082396;28;20408;-84
2020/12/12 14:59:34;;;;;;;;;;;;;;;;;;5086009;28;20386;-86
2020/12/12 15:02:01;;;;;;;;;;;;;;;;;;5083738;28;20405;-84
2020/12/12 15:04:27;;;;;;;;;;;;;;;;;;5067218;28;20382;-83
2020/12/12 15:06:53;;;;;;;;;;;;;;;;;;5079431;28;20377;-85
2020/12/12 15:09:20;;;;;;;;;;;;;;;;;;5079959;28;20385;-84
2020/12/12 15:11:46;;;;;;;;;;;;;;;;;;5078543;28;20858;-85
2020/12/12 15:14:13;;;;;;;;;;;;;;;;;;5079185;28;20390;-85
2020/12/12 15:16:39;;;;;;;;;;;;;;;;;;5075565;28;20369;-84
2020/12/12 15:19:05;;;;;;;;;;;;;;;;;;5092474;28;20379;-86
2020/12/12 15:21:32;;;;;;;;;;;;;;;;;;5092386;28;20418;-85
2020/12/12 15:23:58;;;;;;;;;;;;;;;;;;5077056;28;20491;-85
2020/12/12 15:26:24;;;;;;;;;;;;;;;;;;5079927;28;20407;-85
2020/12/12 15:28:51;;;;;;;;;;;;;;;;;;5080667;28;20459;-85
2020/12/12 15:31:21;;;;;;;;;;;;;;;;;;5072003;28;20370;-84
2020/12/12 15:33:47;;;;;;;;;;;;;;;;;;5085528;28;20489;-85
2020/12/12 15:36:14;;;;;;;;;;;;;;;;;;5081059;28;20381;-85
2020/12/12 15:38:41;;;;;;;;;;;;;;;;;;5080858;28;20470;-85
2020/12/12 15:41:07;;;;;;;;;;;;;;;;;;5079639;28;20387;-85
2020/12/12 15:43:33;;;;;;;;;;;;;;;;;;5098095;28;20419;-86
2020/12/12 15:46:00;;;;;;;;;;;;;;;;;;5088172;28;20374;-86
2020/12/12 15:48:26;;;;;;;;;;;;;;;;;;5083550;28;20388;-85
2020/12/12 15:50:53;;;;;;;;;;;;;;;;;;5081747;28;20382;-85
2020/12/12 15:53:19;;;;;;;;;;;;;;;;;;5066439;28;20404;-85
2020/12/12 15:55:46;;;;;;;;;;;;;;;;;;5080022;28;20397;-83
2020/12/12 15:58:12;;;;;;;;;;;;;;;;;;5085293;28;20393;-84
2020/12/12 16:00:38;;;;;;;;;;;;;;;;;;5085841;28;20404;-84
2020/12/12 16:03:05;;;;;;;;;;;;;;;;;;5076564;28;20467;-84
2020/12/12 16:05:32;;;;;;;;;;;;;;;;;;5092739;28;20365;-83
2020/12/12 16:07:59;;;;;;;;;;;;;;;;;;5079729;28;20356;-83
2020/12/12 16:10:25;;;;;;;;;;;;;;;;;;5068078;28;20756;-84
2020/12/12 16:12:52;;;;;;;;;;;;;;;;;;5084922;28;20420;-85
2020/12/12 16:15:18;;;;;;;;;;;;;;;;;;5084066;28;20388;-83
2020/12/12 16:17:47;;;;;;;;;;;;;;;;;;5084722;28;20398;-84
2020/12/12 16:20:16;;;;;;;;;;;;;;;;;;5087426;28;20411;-84
2020/12/12 16:22:42;;;;;;;;;;;;;;;;;;5086372;28;20433;-84
2020/12/12 16:25:09;;;;;;;;;;;;;;;;;;5088497;28;20378;-86
2020/12/12 16:27:37;;;;;;;;;;;;;;;;;;5089391;28;20381;-85
2020/12/12 16:30:04;;;;;;;;;;;;;;;;;;5093968;28;20368;-85
2020/12/12 16:32:30;;;;;;;;;;;;;;;;;;5084855;28;20384;-85
2020/12/12 16:34:56;;;;;;;;;;;;;;;;;;5060383;28;20400;-85
2020/12/12 16:37:23;;;;;;;;;;;;;;;;;;5081961;28;20398;-85
2020/12/12 16:39:49;;;;;;;;;;;;;;;;;;5074006;28;20382;-85
2020/12/12 16:42:16;;;;;;;;;;;;;;;;;;5084155;28;20404;-85
2020/12/12 16:44:42;;;;;;;;;;;;;;;;;;5097635;28;20386;-85
2020/12/12 16:47:08;;;;;;;;;;;;;;;;;;5082935;28;20382;-85
2020/12/12 16:49:35;;;;;;;;;;;;;;;;;;5083911;28;20374;-85
2020/12/12 16:52:01;;;;;;;;;;;;;;;;;;5085993;28;20425;-84
2020/12/12 16:54:28;;;;;;;;;;;;;;;;;;5082903;28;20385;-84
2020/12/12 16:56:54;;;;;;;;;;;;;;;;;;5080184;28;20406;-84
2020/12/12 16:59:21;;;;;;;;;;;;;;;;;;5078919;28;20385;-84
2020/12/12 17:01:48;;;;;;;;;;;;;;;;;;5086334;28;20739;-83
2020/12/12 17:04:14;;;;;;;;;;;;;;;;;;5086155;28;20374;-83
2020/12/12 17:06:41;;;;;;;;;;;;;;;;;;5078888;28;20389;-85
2020/12/12 17:09:07;;;;;;;;;;;;;;;;;;5089227;28;20947;-83
2020/12/12 17:11:33;;;;;;;;;;;;;;;;;;5084200;28;20377;-81
2020/12/12 17:14:01;;;;;;;;;;;;;;;;;;5081572;28;20416;-84
2020/12/12 17:16:27;;;;;;;;;;;;;;;;;;5081585;28;20382;-82
2020/12/12 17:18:54;;;;;;;;;;;;;;;;;;5083098;28;20432;-83
2020/12/12 17:21:20;;;;;;;;;;;;;;;;;;5073927;28;20906;-83
2020/12/12 17:23:47;;;;;;;;;;;;;;;;;;5083211;28;20398;-85
2020/12/12 17:26:14;;;;;;;;;;;;;;;;;;5086878;28;20389;-85